Time;durP1;ratioP1;P1;durP2;ratioP2;P2;SDS_P1;SDS_P2;PMS_P1;PMS_P2;Temp;Humidity;BMP_temperature;BMP_pressure;BME280_temperature;BME280_humidity;BME280_pressure;Samples;Min_cycle;Max_cycle;Signal;HPM_P1;HPM_P2
2023/11/27 00:00:15;;;;;;;15.25;7.95;;;6.10;99.90;;;;;;6124392;23;20340;-73
2023/11/27 00:02:41;;;;;;;14.07;7.28;;;6.10;99.90;;;;;;6151121;23;20040;-73
2023/11/27 00:05:07;;;;;;;17.98;7.45;;;6.10;99.90;;;;;;6149005;23;20049;-73
2023/11/27 00:07:33;;;;;;;13.15;7.15;;;6.10;99.90;;;;;;6149128;23;20021;-73
2023/11/27 00:09:59;;;;;;;16.70;7.90;;;6.10;99.90;;;;;;6147313;23;20010;-72
2023/11/27 00:12:24;;;;;;;14.68;6.78;;;6.10;99.90;;;;;;6150418;23;20021;-74
2023/11/27 00:14:50;;;;;;;10.85;5.95;;;6.10;99.90;;;;;;6123186;23;20088;-73
2023/11/27 00:17:15;;;;;;;15.88;7.68;;;6.10;99.90;;;;;;6150371;23;20008;-73
2023/11/27 00:19:41;;;;;;;14.23;7.25;;;6.00;99.90;;;;;;6148552;23;20399;-72
2023/11/27 00:22:07;;;;;;;14.25;6.38;;;6.00;99.90;;;;;;6148921;23;20013;-72
2023/11/27 00:24:33;;;;;;;15.30;6.80;;;6.00;99.90;;;;;;6149823;23;20165;-72
2023/11/27 00:26:58;;;;;;;15.38;7.07;;;6.00;99.90;;;;;;6147371;23;20456;-73
2023/11/27 00:29:24;;;;;;;14.07;7.53;;;6.10;99.90;;;;;;6148004;23;20009;-74
2023/11/27 00:31:49;;;;;;;15.27;7.68;;;6.00;99.90;;;;;;6147564;23;20009;-74
2023/11/27 00:34:16;;;;;;;14.90;7.30;;;6.00;99.90;;;;;;6149825;23;20006;-73
2023/11/27 00:36:42;;;;;;;11.85;5.80;;;6.00;99.90;;;;;;6150453;23;20001;-73
2023/11/27 00:39:08;;;;;;;17.35;8.88;;;6.00;99.90;;;;;;6122977;23;20063;-73
2023/11/27 00:41:35;;;;;;;14.82;6.68;;;6.00;99.90;;;;;;6148342;23;20777;-73
2023/11/27 00:44:00;;;;;;;16.52;7.50;;;6.00;99.90;;;;;;6147154;23;20022;-73
2023/11/27 00:46:26;;;;;;;16.38;7.68;;;6.00;99.90;;;;;;6150555;23;20088;-72
2023/11/27 00:48:52;;;;;;;13.52;7.18;;;6.00;99.90;;;;;;6123110;23;20453;-74
2023/11/27 00:51:17;;;;;;;22.33;7.28;;;6.00;99.90;;;;;;6123976;23;20021;-73
2023/11/27 00:53:43;;;;;;;13.40;7.10;;;6.00;99.90;;;;;;6124212;23;20013;-73
2023/11/27 00:56:09;;;;;;;19.92;7.07;;;6.00;99.90;;;;;;6148423;23;20017;-72
2023/11/27 00:58:35;;;;;;;18.42;8.48;;;6.00;99.90;;;;;;6148551;23;20013;-72
2023/11/27 01:01:02;;;;;;;16.50;7.32;;;5.90;99.90;;;;;;6122494;23;20018;-73
2023/11/27 01:03:27;;;;;;;21.65;9.02;;;5.90;99.90;;;;;;6150299;23;20397;-73
2023/11/27 01:05:55;;;;;;;19.17;7.75;;;5.90;99.90;;;;;;6148516;23;20037;-72
2023/11/27 01:08:21;;;;;;;16.83;6.75;;;5.90;99.90;;;;;;6150029;23;20018;-73
2023/11/27 01:10:47;;;;;;;15.65;6.95;;;5.90;99.90;;;;;;6123737;23;20017;-73
2023/11/27 01:13:12;;;;;;;11.95;6.13;;;5.90;99.90;;;;;;6148931;23;20025;-75
2023/11/27 01:15:38;;;;;;;18.30;6.18;;;5.80;99.90;;;;;;6149910;23;20597;-72
2023/11/27 01:18:03;;;;;;;17.95;7.03;;;5.80;99.90;;;;;;6122660;23;20033;-72
2023/11/27 01:20:29;;;;;;;15.90;6.90;;;5.80;99.90;;;;;;6124011;23;20017;-73
2023/11/27 01:22:55;;;;;;;15.45;7.22;;;5.80;99.90;;;;;;6146762;23;20017;-73
2023/11/27 01:25:21;;;;;;;19.75;6.07;;;5.80;99.90;;;;;;6123648;23;20022;-72
2023/11/27 01:27:47;;;;;;;15.77;6.05;;;5.80;99.90;;;;;;6148692;23;20347;-73
2023/11/27 01:30:15;;;;;;;15.50;5.57;;;5.80;99.90;;;;;;6148893;23;20005;-72
2023/11/27 01:32:42;;;;;;;15.32;6.32;;;5.80;99.90;;;;;;6150181;23;20028;-73
2023/11/27 01:35:08;;;;;;;12.10;5.53;;;5.80;99.90;;;;;;6123289;23;20048;-72
2023/11/27 01:37:34;;;;;;;10.80;5.43;;;5.70;99.90;;;;;;6125464;23;20480;-73
2023/11/27 01:40:00;;;;;;;16.35;4.97;;;5.70;99.90;;;;;;6151538;23;20013;-72
2023/11/27 01:42:25;;;;;;;14.30;5.28;;;5.70;99.90;;;;;;6149876;23;20023;-72
2023/11/27 01:44:51;;;;;;;10.77;4.57;;;5.70;99.90;;;;;;6149005;23;20005;-72
2023/11/27 01:47:17;;;;;;;12.52;5.65;;;5.70;99.90;;;;;;6125312;23;20049;-72
2023/11/27 01:49:45;;;;;;;14.80;5.07;;;5.70;99.90;;;;;;6152222;23;20017;-71
2023/11/27 01:52:12;;;;;;;9.50;4.75;;;5.70;99.90;;;;;;6124204;23;20005;-73
2023/11/27 01:54:40;;;;;;;10.50;4.45;;;5.70;99.90;;;;;;6125496;23;20511;-73
2023/11/27 01:57:07;;;;;;;14.90;5.05;;;5.70;99.90;;;;;;6150199;23;20009;-72
2023/11/27 01:59:33;;;;;;;8.30;4.15;;;5.60;99.90;;;;;;6152224;23;20137;-73
2023/11/27 02:02:00;;;;;;;14.27;4.50;;;5.60;99.90;;;;;;6149049;23;20010;-74
2023/11/27 02:04:27;;;;;;;13.55;4.85;;;5.70;99.90;;;;;;6151751;23;20028;-73
2023/11/27 02:06:52;;;;;;;10.75;4.22;;;5.60;99.90;;;;;;6124422;23;20064;-73
2023/11/27 02:09:18;;;;;;;7.40;3.92;;;5.60;99.90;;;;;;6151615;23;20017;-72
2023/11/27 02:11:48;;;;;;;8.75;4.05;;;5.60;99.90;;;;;;6125243;23;20302;-73
2023/11/27 02:14:15;;;;;;;10.73;4.28;;;5.60;99.90;;;;;;6150490;23;20025;-74
2023/11/27 02:16:43;;;;;;;9.15;4.05;;;5.60;99.90;;;;;;6125456;23;20478;-73
2023/11/27 02:19:09;;;;;;;11.20;4.03;;;5.60;99.90;;;;;;6150120;23;20017;-73
2023/11/27 02:21:34;;;;;;;10.70;4.90;;;5.60;99.90;;;;;;6152120;23;20014;-72
2023/11/27 02:24:00;;;;;;;11.15;5.60;;;5.60;99.90;;;;;;6150456;23;20044;-74
2023/11/27 02:26:26;;;;;;;11.27;4.15;;;5.60;99.90;;;;;;6151594;23;20339;-73
2023/11/27 02:28:51;;;;;;;13.13;4.10;;;5.60;99.90;;;;;;6153395;23;20014;-72
2023/11/27 02:31:17;;;;;;;11.13;3.53;;;5.60;99.90;;;;;;6156639;23;20021;-72
2023/11/27 02:33:42;;;;;;;15.82;3.92;;;5.60;99.90;;;;;;6151457;23;20084;-72
2023/11/27 02:36:08;;;;;;;8.90;4.47;;;5.60;99.90;;;;;;6150351;23;20013;-71
2023/11/27 02:38:36;;;;;;;10.50;4.53;;;5.50;99.90;;;;;;6151718;23;20032;-73
2023/11/27 02:41:02;;;;;;;7.32;3.60;;;5.60;99.90;;;;;;6122788;23;20015;-73
2023/11/27 02:43:28;;;;;;;9.48;3.20;;;5.60;99.90;;;;;;6151726;23;20036;-72
2023/11/27 02:45:55;;;;;;;8.63;3.60;;;5.50;99.90;;;;;;6124372;23;20018;-72
2023/11/27 02:48:21;;;;;;;10.10;3.50;;;5.50;99.90;;;;;;6151352;23;20013;-71
2023/11/27 02:50:47;;;;;;;7.90;3.40;;;5.50;99.90;;;;;;6149985;23;20359;-73
2023/11/27 02:53:13;;;;;;;13.70;4.50;;;5.50;99.90;;;;;;6148635;23;20017;-72
2023/11/27 02:55:40;;;;;;;13.35;3.83;;;5.50;99.90;;;;;;6125488;23;20006;-73
2023/11/27 02:58:07;;;;;;;13.65;3.67;;;5.50;99.90;;;;;;6123047;23;20029;-73
2023/11/27 03:00:33;;;;;;;8.57;3.88;;;5.50;99.90;;;;;;6125407;23;20017;-72
2023/11/27 03:02:59;;;;;;;11.77;3.35;;;5.50;99.90;;;;;;6149469;23;20009;-73
2023/11/27 03:05:25;;;;;;;5.57;3.03;;;5.50;99.90;;;;;;6151625;23;20060;-73
2023/11/27 03:07:51;;;;;;;7.90;3.08;;;5.50;99.90;;;;;;6148030;23;20068;-73
2023/11/27 03:10:17;;;;;;;8.48;3.85;;;5.50;99.90;;;;;;6125569;23;20016;-73
2023/11/27 03:12:43;;;;;;;7.25;3.70;;;5.50;99.90;;;;;;6151041;23;20017;-72
2023/11/27 03:15:09;;;;;;;14.80;5.15;;;5.50;99.90;;;;;;6149664;23;20018;-73
2023/11/27 03:17:34;;;;;;;10.88;4.30;;;5.50;99.90;;;;;;6152310;23;20728;-72
2023/11/27 03:20:00;;;;;;;12.38;4.32;;;5.50;99.90;;;;;;6154247;23;20021;-71
2023/11/27 03:22:25;;;;;;;10.55;4.20;;;5.50;99.90;;;;;;6153650;23;20352;-72
2023/11/27 03:24:51;;;;;;;10.95;3.42;;;5.50;99.90;;;;;;6149000;23;20051;-72
2023/11/27 03:27:17;;;;;;;8.55;3.90;;;5.50;99.90;;;;;;6150487;23;20079;-72
2023/11/27 03:29:43;;;;;;;12.55;4.30;;;5.50;99.90;;;;;;6148720;23;20056;-72
2023/11/27 03:32:08;;;;;;;10.55;4.05;;;5.50;99.90;;;;;;6148190;23;20034;-73
2023/11/27 03:34:34;;;;;;;9.15;4.18;;;5.50;99.90;;;;;;6150741;23;20036;-73
2023/11/27 03:36:59;;;;;;;10.20;4.53;;;5.60;99.90;;;;;;6122121;23;20037;-72
2023/11/27 03:39:25;;;;;;;8.35;3.85;;;5.50;99.90;;;;;;6150211;23;20009;-73
2023/11/27 03:41:51;;;;;;;10.25;4.57;;;5.50;99.90;;;;;;6148618;23;20019;-73
2023/11/27 03:44:16;;;;;;;12.77;4.95;;;5.50;99.90;;;;;;6123960;23;20024;-74
2023/11/27 03:46:42;;;;;;;7.05;4.03;;;5.50;99.90;;;;;;6150793;23;20009;-70
2023/11/27 03:49:08;;;;;;;7.05;3.92;;;5.50;99.90;;;;;;6147513;23;20351;-74
2023/11/27 03:51:33;;;;;;;9.43;4.22;;;5.50;99.90;;;;;;6149095;23;20021;-73
2023/11/27 03:53:59;;;;;;;13.73;4.80;;;5.50;99.90;;;;;;6149088;23;20013;-74
2023/11/27 03:56:24;;;;;;;8.77;4.30;;;5.50;99.90;;;;;;6149134;23;20040;-72
2023/11/27 03:58:50;;;;;;;6.72;3.53;;;5.50;99.90;;;;;;6123910;23;20018;-74
2023/11/27 04:01:16;;;;;;;9.30;3.92;;;5.50;99.90;;;;;;6150034;23;20045;-73
2023/11/27 04:03:42;;;;;;;6.65;3.55;;;5.50;99.90;;;;;;6150411;23;20013;-73
2023/11/27 04:06:09;;;;;;;10.35;4.63;;;5.40;99.90;;;;;;6149228;23;20017;-72
2023/11/27 04:08:38;;;;;;;9.77;3.80;;;5.50;99.90;;;;;;6151151;23;20017;-73
2023/11/27 04:11:09;;;;;;;8.25;3.28;;;5.50;99.90;;;;;;6151198;23;20021;-72
2023/11/27 04:13:35;;;;;;;;;;;5.40;99.90;;;;;;6153797;23;20014;-72
2023/11/27 04:16:00;;;;;;;5.88;3.75;;;5.40;99.90;;;;;;6123481;23;19926;-73
2023/11/27 04:18:26;;;;;;;7.80;3.90;;;5.40;99.90;;;;;;6150356;23;20444;-72
2023/11/27 04:20:51;;;;;;;10.27;3.53;;;5.40;99.90;;;;;;6123104;23;20017;-74
2023/11/27 04:23:17;;;;;;;5.25;2.95;;;5.40;99.90;;;;;;6124530;23;20026;-73
2023/11/27 04:25:42;;;;;;;6.95;3.78;;;5.40;99.90;;;;;;6123451;23;20052;-75
2023/11/27 04:28:08;;;;;;;6.35;3.20;;;5.40;99.90;;;;;;6122601;23;20017;-74
2023/11/27 04:30:33;;;;;;;8.25;3.22;;;5.30;99.90;;;;;;6124004;23;20009;-72
2023/11/27 04:32:59;;;;;;;5.60;2.83;;;5.30;99.90;;;;;;6122156;23;20420;-73
2023/11/27 04:35:25;;;;;;;4.80;2.80;;;5.30;99.90;;;;;;6124167;23;20014;-74
2023/11/27 04:37:51;;;;;;;6.93;3.92;;;5.30;99.90;;;;;;6122862;23;20014;-74
2023/11/27 04:40:17;;;;;;;4.50;2.60;;;5.30;99.90;;;;;;6148646;23;20455;-74
2023/11/27 04:42:42;;;;;;;5.85;3.05;;;5.30;99.90;;;;;;6123659;23;20013;-72
2023/11/27 04:45:08;;;;;;;7.85;3.20;;;5.40;99.90;;;;;;6148856;23;20292;-73
2023/11/27 04:47:35;;;;;;;9.52;3.72;;;5.30;99.90;;;;;;6124334;23;20005;-73
2023/11/27 04:50:01;;;;;;;5.40;2.70;;;5.30;99.90;;;;;;6122730;23;20016;-74
2023/11/27 04:52:27;;;;;;;6.93;3.25;;;5.30;99.90;;;;;;6150264;23;20010;-73
2023/11/27 04:54:52;;;;;;;7.43;3.58;;;5.30;99.90;;;;;;6123263;23;20033;-73
2023/11/27 04:57:21;;;;;;;5.47;2.72;;;5.30;99.90;;;;;;6150810;23;20009;-73
2023/11/27 04:59:47;;;;;;;5.72;2.38;;;5.30;99.90;;;;;;6125637;23;20029;-73
2023/11/27 05:02:12;;;;;;;4.22;2.63;;;5.20;99.90;;;;;;6126848;23;20338;-73
2023/11/27 05:04:38;;;;;;;6.78;2.90;;;5.20;99.90;;;;;;6127810;23;20013;-73
2023/11/27 05:07:03;;;;;;;7.38;2.65;;;5.20;99.90;;;;;;6146993;23;20040;-73
2023/11/27 05:09:32;;;;;;;4.25;2.67;;;5.20;99.90;;;;;;6148841;23;20088;-73
2023/11/27 05:11:57;;;;;;;4.80;2.60;;;5.20;99.90;;;;;;6147339;23;20013;-73
2023/11/27 05:14:23;;;;;;;4.85;3.03;;;5.20;99.90;;;;;;6124096;23;20399;-73
2023/11/27 05:16:48;;;;;;;4.28;2.53;;;5.20;99.90;;;;;;6150099;23;20021;-72
2023/11/27 05:19:14;;;;;;;5.63;3.00;;;5.20;99.90;;;;;;6148664;23;20017;-74
2023/11/27 05:21:39;;;;;;;4.28;2.53;;;5.20;99.90;;;;;;6125144;23;20049;-73
2023/11/27 05:26:40;;;;;;;3.25;2.22;;;5.20;99.90;;;;;;6184078;22;20043;-79
2023/11/27 05:29:06;;;;;;;3.90;2.08;;;5.10;99.90;;;;;;6212183;22;20315;-78
2023/11/27 05:31:32;;;;;;;3.53;1.70;;;5.20;99.90;;;;;;6213234;23;20005;-78
2023/11/27 05:33:57;;;;;;;3.88;2.03;;;5.20;99.90;;;;;;6213360;22;20346;-79
2023/11/27 05:36:23;;;;;;;4.15;1.48;;;5.10;99.90;;;;;;6214859;23;20024;-78
2023/11/27 05:38:49;;;;;;;3.38;1.83;;;5.10;99.90;;;;;;6213676;23;20016;-79
2023/11/27 05:41:15;;;;;;;1.80;1.13;;;5.10;99.90;;;;;;6211366;23;20015;-78
2023/11/27 05:43:43;;;;;;;2.38;1.30;;;5.10;99.90;;;;;;6207571;23;20046;-78
2023/11/27 05:46:10;;;;;;;11.98;1.60;;;5.10;99.90;;;;;;6209811;23;20129;-77
2023/11/27 05:48:36;;;;;;;2.38;1.50;;;5.10;99.90;;;;;;6210427;23;20017;-76
2023/11/27 05:51:01;;;;;;;2.20;1.25;;;5.10;99.90;;;;;;6211425;23;20788;-78
2023/11/27 05:53:27;;;;;;;3.55;1.50;;;5.10;99.90;;;;;;6212997;23;20016;-78
2023/11/27 05:55:53;;;;;;;3.08;1.58;;;5.10;99.90;;;;;;6211483;23;20016;-79
2023/11/27 05:58:19;;;;;;;2.78;1.38;;;5.10;99.90;;;;;;6212003;23;20023;-79
2023/11/27 06:00:44;;;;;;;4.70;1.42;;;5.00;99.90;;;;;;6211208;23;20013;-79
2023/11/27 06:03:10;;;;;;;7.80;2.13;;;5.10;99.90;;;;;;6209061;23;20086;-79
2023/11/27 06:05:36;;;;;;;4.80;1.42;;;5.00;99.90;;;;;;6211882;23;20020;-78
2023/11/27 06:08:03;;;;;;;3.45;1.35;;;5.00;99.90;;;;;;6210784;23;20572;-75
2023/11/27 06:10:29;;;;;;;3.97;1.10;;;5.00;99.90;;;;;;6212248;23;20016;-79
2023/11/27 06:12:55;;;;;;;2.38;1.35;;;5.00;99.90;;;;;;6208812;23;20005;-77
2023/11/27 06:15:21;;;;;;;2.83;1.33;;;4.90;99.90;;;;;;6210438;23;20004;-78
2023/11/27 06:17:46;;;;;;;5.93;1.60;;;5.00;99.90;;;;;;6210455;23;20470;-77
2023/11/27 06:20:14;;;;;;;3.15;1.60;;;4.90;99.90;;;;;;6212292;23;20434;-78
2023/11/27 06:22:39;;;;;;;4.32;2.05;;;4.90;99.90;;;;;;6211541;23;20107;-79
2023/11/27 06:25:07;;;;;;;2.33;1.75;;;5.00;99.90;;;;;;6211708;23;20012;-78
2023/11/27 06:27:32;;;;;;;2.85;1.58;;;4.90;99.90;;;;;;6211448;23;20021;-77
2023/11/27 06:29:58;;;;;;;3.88;1.75;;;4.90;99.90;;;;;;6210152;23;20043;-79
2023/11/27 06:32:24;;;;;;;3.72;1.70;;;4.90;99.90;;;;;;6210578;23;20028;-78
2023/11/27 06:34:50;;;;;;;4.28;1.88;;;4.90;99.90;;;;;;6211282;23;20529;-79
2023/11/27 06:37:16;;;;;;;4.70;2.03;;;4.90;99.90;;;;;;6211225;23;20092;-79
2023/11/27 06:39:42;;;;;;;4.93;1.80;;;4.90;99.90;;;;;;6213322;23;20005;-78
2023/11/27 06:42:08;;;;;;;3.50;1.55;;;4.90;99.90;;;;;;6210127;23;20016;-77
2023/11/27 06:44:34;;;;;;;4.57;2.03;;;5.00;99.90;;;;;;6211440;23;20040;-78
2023/11/27 06:46:59;;;;;;;3.25;2.15;;;5.00;99.90;;;;;;6210323;23;20102;-76
2023/11/27 06:49:26;;;;;;;5.78;1.90;;;5.00;99.90;;;;;;6213294;23;20008;-79
2023/11/27 06:51:51;;;;;;;4.15;2.28;;;4.90;99.90;;;;;;6211020;23;20047;-80
2023/11/27 06:54:17;;;;;;;5.40;2.55;;;4.90;99.90;;;;;;6213610;23;20021;-78
2023/11/27 06:56:43;;;;;;;4.68;2.22;;;4.90;99.90;;;;;;6211517;23;20036;-80
2023/11/27 06:59:09;;;;;;;5.63;2.60;;;4.90;99.90;;;;;;6211412;23;20005;-78
2023/11/27 07:01:39;;;;;;;5.40;2.72;;;5.00;99.90;;;;;;6209416;23;20084;-77
2023/11/27 07:04:05;;;;;;;5.30;2.45;;;4.90;99.90;;;;;;6211144;22;20502;-78
2023/11/27 07:06:30;;;;;;;5.07;2.70;;;4.90;99.90;;;;;;6212912;23;20044;-80
2023/11/27 07:08:59;;;;;;;7.50;2.92;;;4.90;99.90;;;;;;6209728;23;20342;-79
2023/11/27 07:11:25;;;;;;;8.30;2.72;;;4.90;99.90;;;;;;6212291;23;20017;-78
2023/11/27 07:13:51;;;;;;;6.50;2.75;;;4.90;99.90;;;;;;6212484;23;20005;-79
2023/11/27 07:16:17;;;;;;;4.55;2.42;;;4.90;99.90;;;;;;6210448;23;20020;-79
2023/11/27 07:18:46;;;;;;;5.47;2.97;;;4.90;99.90;;;;;;6212415;23;20016;-78
2023/11/27 07:21:12;;;;;;;4.18;2.88;;;4.90;99.90;;;;;;6211860;23;20016;-79
2023/11/27 07:23:40;;;;;;;4.05;2.33;;;4.90;99.90;;;;;;6211951;23;20476;-80
2023/11/27 07:26:07;;;;;;;5.60;2.78;;;4.90;99.90;;;;;;6210250;23;20021;-78
2023/11/27 07:28:33;;;;;;;4.50;2.20;;;4.90;99.90;;;;;;6210807;23;20076;-77
2023/11/27 07:30:58;;;;;;;5.20;2.83;;;4.90;99.90;;;;;;6209269;23;20017;-78
2023/11/27 07:33:24;;;;;;;4.05;2.95;;;4.90;99.90;;;;;;6211533;23;20041;-81
2023/11/27 07:35:50;;;;;;;4.88;3.10;;;4.90;99.90;;;;;;6211616;23;20040;-79
2023/11/27 07:38:16;;;;;;;4.90;3.00;;;4.90;99.90;;;;;;6209503;23;20008;-79
2023/11/27 07:40:42;;;;;;;4.63;2.83;;;4.90;99.90;;;;;;6210375;23;20467;-79
2023/11/27 07:43:10;;;;;;;6.45;2.90;;;4.90;99.90;;;;;;6210638;23;20019;-78
2023/11/27 07:45:37;;;;;;;5.00;2.63;;;4.90;99.90;;;;;;6208517;23;20004;-79
2023/11/27 07:48:02;;;;;;;4.60;2.45;;;5.00;99.90;;;;;;6209866;23;20092;-77
2023/11/27 07:50:29;;;;;;;5.35;2.90;;;4.90;99.90;;;;;;6209777;23;20091;-77
2023/11/27 07:52:55;;;;;;;4.07;2.92;;;5.00;99.90;;;;;;6209059;23;20012;-77
2023/11/27 07:55:21;;;;;;;5.72;3.05;;;5.00;99.90;;;;;;6207139;23;20104;-76
2023/11/27 07:57:47;;;;;;;5.57;2.70;;;5.00;99.90;;;;;;6209468;23;20051;-77
2023/11/27 08:00:14;;;;;;;6.07;2.88;;;5.00;99.90;;;;;;6206121;23;20047;-76
2023/11/27 08:02:42;;;;;;;4.22;2.70;;;5.00;99.90;;;;;;6207655;23;20088;-77
2023/11/27 08:05:08;;;;;;;5.88;3.60;;;5.00;99.90;;;;;;6205977;23;20719;-75
2023/11/27 08:07:34;;;;;;;5.15;2.90;;;5.00;99.90;;;;;;6208581;23;20044;-76
2023/11/27 08:10:01;;;;;;;5.13;3.28;;;5.00;99.90;;;;;;6206322;23;20435;-77
2023/11/27 08:12:26;;;;;;;5.03;3.10;;;5.00;99.90;;;;;;6207212;23;20012;-77
2023/11/27 08:14:52;;;;;;;5.47;3.33;;;5.00;99.90;;;;;;6208699;23;20656;-78
2023/11/27 08:17:18;;;;;;;9.00;4.65;;;5.00;99.90;;;;;;6212056;23;20820;-78
2023/11/27 08:19:44;;;;;;;3.60;2.70;;;5.00;99.90;;;;;;6211491;23;20044;-77
2023/11/27 08:22:11;;;;;;;4.85;2.72;;;5.10;99.90;;;;;;6209852;23;20012;-77
2023/11/27 08:24:40;;;;;;;5.32;3.10;;;5.10;99.90;;;;;;6209648;23;20040;-77
2023/11/27 08:27:06;;;;;;;5.05;3.22;;;5.00;99.90;;;;;;6209286;23;20028;-76
2023/11/27 08:29:32;;;;;;;10.57;3.58;;;5.00;99.90;;;;;;6211177;23;20315;-76
2023/11/27 08:31:59;;;;;;;4.90;2.67;;;5.00;99.90;;;;;;6207017;23;20036;-76
2023/11/27 08:34:25;;;;;;;5.38;2.95;;;5.10;99.90;;;;;;6210363;22;20023;-77
2023/11/27 08:36:51;;;;;;;5.57;3.05;;;5.10;99.90;;;;;;6209325;23;20059;-77
2023/11/27 08:39:17;;;;;;;5.18;2.92;;;5.10;99.90;;;;;;6209371;23;20021;-76
2023/11/27 08:41:43;;;;;;;5.38;3.15;;;5.10;99.90;;;;;;6208339;23;20307;-77
2023/11/27 08:44:09;;;;;;;5.70;2.97;;;5.10;99.90;;;;;;6207684;22;20134;-77
2023/11/27 08:46:38;;;;;;;5.32;3.00;;;5.10;99.90;;;;;;6209709;23;20012;-76
2023/11/27 08:49:07;;;;;;;4.93;3.20;;;5.10;99.90;;;;;;6208222;23;20012;-75
2023/11/27 08:51:32;;;;;;;5.65;3.45;;;5.10;99.90;;;;;;6210975;23;20413;-77
2023/11/27 08:53:58;;;;;;;6.45;3.50;;;5.10;99.90;;;;;;6210495;23;20044;-77
2023/11/27 08:56:25;;;;;;;5.30;3.40;;;5.10;99.90;;;;;;6209188;23;20019;-78
2023/11/27 08:58:52;;;;;;;7.00;3.10;;;5.10;99.90;;;;;;6210194;23;20009;-78
2023/11/27 09:01:17;;;;;;;5.30;3.13;;;5.20;99.90;;;;;;6209957;23;20070;-77
2023/11/27 09:03:44;;;;;;;3.97;2.70;;;5.20;99.90;;;;;;6211424;23;20044;-76
2023/11/27 09:06:10;;;;;;;4.68;2.45;;;5.20;99.90;;;;;;6211490;23;20009;-78
2023/11/27 09:08:38;;;;;;;5.28;3.22;;;5.20;99.90;;;;;;6210874;23;20020;-77
2023/11/27 09:11:06;;;;;;;4.53;2.83;;;5.20;99.90;;;;;;6210872;23;20066;-78
2023/11/27 09:13:32;;;;;;;4.35;2.70;;;5.10;99.90;;;;;;6208309;23;20643;-79
2023/11/27 09:15:57;;;;;;;4.05;2.63;;;5.20;99.90;;;;;;6205342;23;20016;-76
2023/11/27 09:18:23;;;;;;;4.75;2.30;;;5.20;99.90;;;;;;6207292;23;20013;-76
2023/11/27 09:20:48;;;;;;;4.40;2.75;;;5.20;99.90;;;;;;6208347;23;20016;-77
2023/11/27 09:23:14;;;;;;;4.57;2.80;;;5.20;99.90;;;;;;6212271;23;20016;-76
2023/11/27 09:25:39;;;;;;;6.07;3.22;;;5.20;99.90;;;;;;6213601;23;20067;-77
2023/11/27 09:28:05;;;;;;;6.00;3.13;;;5.20;99.90;;;;;;6211678;23;20021;-76
2023/11/27 09:30:31;;;;;;;5.00;2.85;;;5.20;99.90;;;;;;6211307;23;20346;-77
2023/11/27 09:32:56;;;;;;;5.57;3.60;;;5.20;99.90;;;;;;6208293;23;20112;-78
2023/11/27 09:35:22;;;;;;;6.45;2.83;;;5.30;99.90;;;;;;6209928;23;20449;-78
2023/11/27 09:37:47;;;;;;;8.05;3.13;;;5.30;99.90;;;;;;6208914;23;20104;-77
2023/11/27 09:40:15;;;;;;;4.72;2.67;;;5.30;99.90;;;;;;6208567;23;20035;-78
2023/11/27 09:42:41;;;;;;;5.88;2.90;;;5.30;99.90;;;;;;6210137;23;20058;-80
2023/11/27 09:45:09;;;;;;;4.65;2.65;;;5.30;99.90;;;;;;6205971;23;20016;-76
2023/11/27 09:47:37;;;;;;;5.22;2.90;;;5.30;99.90;;;;;;6207339;23;20032;-78
2023/11/27 09:50:08;;;;;;;4.22;2.58;;;5.40;99.90;;;;;;6205805;23;20005;-76
2023/11/27 09:52:40;;;;;;;5.75;3.08;;;5.40;99.90;;;;;;6206682;23;20008;-77
2023/11/27 09:55:10;;;;;;;5.95;3.45;;;5.40;99.90;;;;;;6205209;23;20091;-75
2023/11/27 09:57:38;;;;;;;4.78;3.28;;;5.40;99.90;;;;;;6207977;23;20012;-76
2023/11/27 10:00:07;;;;;;;8.25;3.67;;;5.50;99.90;;;;;;6207691;23;20012;-78
2023/11/27 10:02:33;;;;;;;5.60;2.97;;;5.50;99.90;;;;;;6207426;23;20082;-76
2023/11/27 10:05:04;;;;;;;5.38;3.17;;;5.50;99.90;;;;;;6206881;23;20040;-77
2023/11/27 10:07:37;;;;;;;4.88;2.92;;;5.50;99.90;;;;;;6208290;23;20063;-76
2023/11/27 10:10:09;;;;;;;5.63;3.08;;;5.50;99.90;;;;;;6206913;23;20378;-77
2023/11/27 10:12:35;;;;;;;5.63;3.15;;;5.50;99.90;;;;;;6208782;23;20443;-76
2023/11/27 10:15:11;;;;;;;6.88;2.83;;;5.50;99.90;;;;;;6209326;23;20080;-77
2023/11/27 10:17:37;;;;;;;5.55;2.97;;;5.50;99.90;;;;;;6208308;23;20016;-77
2023/11/27 10:20:04;;;;;;;7.13;3.47;;;5.60;99.90;;;;;;6207931;23;20320;-78
2023/11/27 10:22:32;;;;;;;4.93;3.00;;;5.60;99.90;;;;;;6212886;23;20032;-76
2023/11/27 10:25:00;;;;;;;5.63;2.83;;;5.60;99.90;;;;;;6210916;23;20005;-77
2023/11/27 10:27:26;;;;;;;4.50;3.05;;;5.60;99.90;;;;;;6211907;23;20043;-77
2023/11/27 10:29:52;;;;;;;6.10;3.28;;;5.60;99.90;;;;;;6212109;22;20017;-76
2023/11/27 10:32:22;;;;;;;4.18;2.88;;;5.60;99.90;;;;;;6213431;23;20386;-78
2023/11/27 10:34:49;;;;;;;5.80;3.20;;;5.70;99.90;;;;;;6214525;23;20017;-76
2023/11/27 10:37:16;;;;;;;7.03;3.13;;;5.70;99.90;;;;;;6213332;23;20100;-78
2023/11/27 10:39:42;;;;;;;5.50;3.00;;;5.70;99.90;;;;;;6213365;23;20004;-78
2023/11/27 10:42:11;;;;;;;5.30;3.10;;;5.60;99.90;;;;;;6214066;23;20515;-77
2023/11/27 10:44:37;;;;;;;6.22;2.95;;;5.70;99.90;;;;;;6216233;23;20454;-77
2023/11/27 10:47:07;;;;;;;7.80;2.78;;;5.70;99.90;;;;;;6210776;23;20770;-78
2023/11/27 10:49:36;;;;;;;4.07;3.17;;;5.70;99.90;;;;;;6215554;23;20016;-77
2023/11/27 10:52:04;;;;;;;5.25;3.17;;;5.70;99.90;;;;;;6214026;23;20013;-80
2023/11/27 10:54:32;;;;;;;6.50;2.72;;;5.70;99.90;;;;;;6212686;23;20016;-77
2023/11/27 10:57:06;;;;;;;4.55;2.40;;;5.70;99.90;;;;;;6213099;23;20020;-76
2023/11/27 10:59:33;;;;;;;6.75;2.88;;;5.70;99.90;;;;;;6212234;23;20016;-78
2023/11/27 11:02:00;;;;;;;4.22;2.92;;;5.70;99.90;;;;;;6213093;23;20108;-78
2023/11/27 11:04:55;;;;;;;5.80;2.80;;;5.70;99.90;;;;;;6212396;23;20013;-77
2023/11/27 11:07:41;;;;;;;4.47;2.80;;;5.70;99.90;;;;;;6212354;23;20012;-78
2023/11/27 11:10:10;;;;;;;3.72;2.45;;;5.70;99.90;;;;;;6213128;23;20016;-77
2023/11/27 11:12:40;;;;;;;4.75;2.47;;;5.70;99.90;;;;;;6212983;23;20004;-78
2023/11/27 11:15:07;;;;;;;4.80;2.80;;;5.80;99.90;;;;;;6212548;23;20084;-77
2023/11/27 11:17:50;;;;;;;4.47;2.70;;;5.80;99.90;;;;;;6213074;23;20033;-77
2023/11/27 11:20:25;;;;;;;3.60;2.40;;;5.80;99.90;;;;;;6213347;23;20009;-77
2023/11/27 11:23:22;;;;;;;3.03;1.88;;;5.80;99.90;;;;;;6211766;23;20009;-77
2023/11/27 11:26:21;;;;;;;2.30;1.60;;;5.80;99.90;;;;;;6213242;23;20087;-78
2023/11/27 11:28:51;;;;;;;3.33;1.90;;;5.80;99.90;;;;;;6214391;23;20088;-78
2023/11/27 11:31:23;;;;;;;3.70;2.00;;;5.80;99.90;;;;;;6211418;23;20008;-77
2023/11/27 11:33:49;;;;;;;2.40;1.83;;;5.90;99.90;;;;;;6214514;23;20511;-77
2023/11/27 11:36:32;;;;;;;4.00;1.90;;;5.80;99.90;;;;;;6214807;23;20003;-77
2023/11/27 11:38:58;;;;;;;3.20;1.60;;;5.80;99.90;;;;;;6213100;23;20019;-80
2023/11/27 11:41:28;;;;;;;5.38;2.08;;;5.80;99.90;;;;;;6212293;23;20502;-77
2023/11/27 11:43:57;;;;;;;2.22;1.48;;;5.80;99.90;;;;;;6211753;23;20013;-77
2023/11/27 11:46:30;;;;;;;3.10;1.65;;;5.80;99.90;;;;;;6212717;23;20084;-77
2023/11/27 11:49:02;;;;;;;5.05;1.63;;;5.80;99.90;;;;;;6213626;23;20020;-77
2023/11/27 11:51:31;;;;;;;2.63;1.80;;;5.80;99.90;;;;;;6214496;23;20016;-79
2023/11/27 11:53:57;;;;;;;2.58;1.58;;;5.80;99.90;;;;;;6213721;23;20012;-77
2023/11/27 11:56:24;;;;;;;5.15;2.40;;;5.80;99.90;;;;;;6215157;23;20019;-78
2023/11/27 11:58:50;;;;;;;3.78;2.10;;;5.80;99.90;;;;;;6216785;23;20613;-77
2023/11/27 12:01:18;;;;;;;2.83;1.70;;;5.80;99.90;;;;;;6213809;23;20043;-77
2023/11/27 12:03:46;;;;;;;6.50;2.53;;;5.80;99.90;;;;;;6215285;23;20017;-79
2023/11/27 12:06:15;;;;;;;3.33;2.05;;;5.80;99.90;;;;;;6213539;23;20012;-79
2023/11/27 12:08:50;;;;;;;4.20;1.98;;;5.80;99.90;;;;;;6215068;23;20024;-77
2023/11/27 12:11:15;;;;;;;4.30;1.80;;;5.90;99.90;;;;;;6212705;23;20016;-77
2023/11/27 12:13:43;;;;;;;4.13;2.45;;;5.90;99.90;;;;;;6211661;23;20390;-77
2023/11/27 12:16:16;;;;;;;3.30;2.03;;;5.90;99.90;;;;;;6209547;23;20016;-77
2023/11/27 12:18:43;;;;;;;3.38;2.10;;;5.90;99.90;;;;;;6212345;23;20005;-80
2023/11/27 12:21:22;;;;;;;3.65;1.92;;;6.00;99.90;;;;;;6208979;23;20024;-79
2023/11/27 12:23:53;;;;;;;2.40;1.73;;;5.90;99.90;;;;;;6210197;23;20044;-78
2023/11/27 12:26:28;;;;;;;;;;;6.00;99.90;;;;;;6209543;23;20783;-79
2023/11/27 12:28:54;;;;;;;3.25;2.28;;;6.00;99.90;;;;;;6208996;23;19974;-78
2023/11/27 12:31:21;;;;;;;3.63;2.00;;;6.00;99.90;;;;;;6209570;23;20320;-77
2023/11/27 12:33:48;;;;;;;3.42;1.85;;;6.00;99.90;;;;;;6210776;23;20098;-79
2023/11/27 12:36:15;;;;;;;3.35;2.40;;;6.10;99.90;;;;;;6208358;23;20164;-79
2023/11/27 12:38:41;;;;;;;6.18;2.50;;;6.10;99.90;;;;;;6209356;23;20020;-77
2023/11/27 12:41:08;;;;;;;4.18;2.30;;;6.10;99.90;;;;;;6208802;23;20009;-76
2023/11/27 12:43:41;;;;;;;5.25;2.22;;;6.10;99.90;;;;;;6207425;23;20017;-78
2023/11/27 12:46:13;;;;;;;3.13;2.00;;;6.10;99.90;;;;;;6206733;23;20144;-77
2023/11/27 12:48:42;;;;;;;4.95;2.25;;;6.20;99.90;;;;;;6210296;23;20083;-78
2023/11/27 12:51:13;;;;;;;2.78;1.80;;;6.20;99.90;;;;;;6208189;23;20152;-80
2023/11/27 12:53:47;;;;;;;;;;;6.20;99.90;;;;;;6208959;23;20016;-78
2023/11/27 12:56:13;;;;;;;4.88;2.20;;;6.20;99.90;;;;;;6209693;23;19938;-78